Burlata, Spain
Current Conditions -  °F | °C
As of 9:30 PM on Friday 31 Oct 2014 (Local Time) from LEPP Reporting Station
Haze Haze  
Wind Chill: 54°   Ceiling: Unl
Heat Index: 54°   Visibility: 2.5mi
Dew Point: 54°   Wind: 0mph
Humidity: 100%   Direction: NA
Pressure: 30.24"   Gusts: NA
Location:  42.83°N, 1.62°W
Report Text: LEPP 312030Z 00000KT 4000 BR FEW017 12/12 Q1024
Loading
Personal Weather Stations






























Interactive Weather Map
Tropical Storm Tracking
New forecast layout! Learn more

10-Day Weather Forecast

Advertisements
Track Severe Weather on mobile